sensor_id;sensor_type;location;lat;lon;timestamp;P1;durP1;ratioP1;P2;durP2;ratioP2
9034;SDS011;4552;43.422;24.592;2023-12-22T00:01:44;6.30;;;4.17;;
9034;SDS011;4552;43.422;24.592;2023-12-22T00:04:12;9.03;;;4.53;;
9034;SDS011;4552;43.422;24.592;2023-12-22T00:06:40;8.13;;;4.40;;
9034;SDS011;4552;43.422;24.592;2023-12-22T00:09:07;8.47;;;4.60;;
9034;SDS011;4552;43.422;24.592;2023-12-22T00:11:33;7.03;;;4.70;;
9034;SDS011;4552;43.422;24.592;2023-12-22T00:14:00;8.03;;;4.60;;
9034;SDS011;4552;43.422;24.592;2023-12-22T00:16:27;10.27;;;4.90;;
9034;SDS011;4552;43.422;24.592;2023-12-22T00:18:54;9.57;;;5.20;;
9034;SDS011;4552;43.422;24.592;2023-12-22T00:41:35;9.13;;;4.30;;
9034;SDS011;4552;43.422;24.592;2023-12-22T00:44:02;7.07;;;4.23;;
9034;SDS011;4552;43.422;24.592;2023-12-22T00:46:29;7.07;;;4.27;;
9034;SDS011;4552;43.422;24.592;2023-12-22T00:48:56;7.97;;;4.30;;
9034;SDS011;4552;43.422;24.592;2023-12-22T00:58:08;5.67;;;3.97;;
9034;SDS011;4552;43.422;24.592;2023-12-22T01:00:35;6.23;;;3.83;;
9034;SDS011;4552;43.422;24.592;2023-12-22T01:03:02;6.23;;;3.67;;
9034;SDS011;4552;43.422;24.592;2023-12-22T01:05:29;4.90;;;3.40;;
9034;SDS011;4552;43.422;24.592;2023-12-22T01:07:56;6.20;;;3.50;;
9034;SDS011;4552;43.422;24.592;2023-12-22T01:10:23;6.00;;;3.67;;
9034;SDS011;4552;43.422;24.592;2023-12-22T01:12:50;5.30;;;3.53;;
9034;SDS011;4552;43.422;24.592;2023-12-22T01:15:19;4.43;;;3.33;;
9034;SDS011;4552;43.422;24.592;2023-12-22T01:17:46;4.53;;;3.40;;
9034;SDS011;4552;43.422;24.592;2023-12-22T01:20:13;4.80;;;3.47;;
9034;SDS011;4552;43.422;24.592;2023-12-22T01:49:04;12.60;;;5.97;;
9034;SDS011;4552;43.422;24.592;2023-12-22T01:51:33;14.10;;;6.90;;
9034;SDS011;4552;43.422;24.592;2023-12-22T01:54:04;14.27;;;6.10;;
9034;SDS011;4552;43.422;24.592;2023-12-22T01:56:32;11.57;;;5.27;;
9034;SDS011;4552;43.422;24.592;2023-12-22T01:59:00;12.93;;;5.70;;
9034;SDS011;4552;43.422;24.592;2023-12-22T02:01:28;9.27;;;5.00;;
9034;SDS011;4552;43.422;24.592;2023-12-22T02:03:57;7.57;;;4.57;;
9034;SDS011;4552;43.422;24.592;2023-12-22T02:13:21;7.03;;;3.80;;
9034;SDS011;4552;43.422;24.592;2023-12-22T02:15:48;5.30;;;3.70;;
9034;SDS011;4552;43.422;24.592;2023-12-22T02:18:21;6.40;;;4.13;;
9034;SDS011;4552;43.422;24.592;2023-12-22T02:20:55;7.57;;;4.70;;
9034;SDS011;4552;43.422;24.592;2023-12-22T02:23:24;7.97;;;4.67;;
9034;SDS011;4552;43.422;24.592;2023-12-22T02:25:52;9.53;;;4.23;;
9034;SDS011;4552;43.422;24.592;2023-12-22T02:28:26;6.57;;;4.23;;
9034;SDS011;4552;43.422;24.592;2023-12-22T02:30:54;8.00;;;4.30;;
9034;SDS011;4552;43.422;24.592;2023-12-22T02:33:26;6.67;;;4.00;;
9034;SDS011;4552;43.422;24.592;2023-12-22T02:35:56;7.60;;;3.80;;
9034;SDS011;4552;43.422;24.592;2023-12-22T02:38:28;5.20;;;3.67;;
9034;SDS011;4552;43.422;24.592;2023-12-22T02:40:56;4.00;;;2.77;;
9034;SDS011;4552;43.422;24.592;2023-12-22T02:43:23;4.13;;;2.80;;
9034;SDS011;4552;43.422;24.592;2023-12-22T02:45:50;4.77;;;3.23;;
9034;SDS011;4552;43.422;24.592;2023-12-22T02:48:17;5.00;;;3.47;;
9034;SDS011;4552;43.422;24.592;2023-12-22T02:50:44;8.27;;;4.70;;
9034;SDS011;4552;43.422;24.592;2023-12-22T02:53:11;6.20;;;4.40;;
9034;SDS011;4552;43.422;24.592;2023-12-22T02:55:40;4.80;;;3.83;;
9034;SDS011;4552;43.422;24.592;2023-12-22T02:58:06;7.03;;;4.10;;
9034;SDS011;4552;43.422;24.592;2023-12-22T03:00:33;5.53;;;3.63;;
9034;SDS011;4552;43.422;24.592;2023-12-22T03:03:00;7.17;;;4.00;;
9034;SDS011;4552;43.422;24.592;2023-12-22T03:05:27;9.17;;;4.07;;
9034;SDS011;4552;43.422;24.592;2023-12-22T03:07:54;6.27;;;4.03;;
9034;SDS011;4552;43.422;24.592;2023-12-22T03:10:21;6.00;;;4.33;;
9034;SDS011;4552;43.422;24.592;2023-12-22T04:31:14;3.33;;;2.60;;
9034;SDS011;4552;43.422;24.592;2023-12-22T04:33:41;2.50;;;2.30;;
9034;SDS011;4552;43.422;24.592;2023-12-22T04:36:08;3.10;;;2.30;;
9034;SDS011;4552;43.422;24.592;2023-12-22T04:38:35;2.40;;;1.97;;
9034;SDS011;4552;43.422;24.592;2023-12-22T04:41:02;3.23;;;2.20;;
9034;SDS011;4552;43.422;24.592;2023-12-22T05:10:38;2.10;;;1.83;;
9034;SDS011;4552;43.422;24.592;2023-12-22T05:13:05;3.77;;;1.87;;
9034;SDS011;4552;43.422;24.592;2023-12-22T05:15:31;2.67;;;2.20;;
9034;SDS011;4552;43.422;24.592;2023-12-22T05:17:58;2.90;;;2.20;;
9034;SDS011;4552;43.422;24.592;2023-12-22T05:20:25;1.93;;;1.83;;
9034;SDS011;4552;43.422;24.592;2023-12-22T05:22:52;2.67;;;2.07;;
9034;SDS011;4552;43.422;24.592;2023-12-22T05:25:24;3.07;;;2.27;;
9034;SDS011;4552;43.422;24.592;2023-12-22T05:27:52;2.17;;;1.97;;
9034;SDS011;4552;43.422;24.592;2023-12-22T05:30:20;2.37;;;2.17;;
9034;SDS011;4552;43.422;24.592;2023-12-22T05:32:47;2.20;;;2.00;;
9034;SDS011;4552;43.422;24.592;2023-12-22T05:35:14;2.00;;;1.80;;
9034;SDS011;4552;43.422;24.592;2023-12-22T05:37:41;1.97;;;1.83;;
9034;SDS011;4552;43.422;24.592;2023-12-22T05:40:09;1.83;;;1.70;;
9034;SDS011;4552;43.422;24.592;2023-12-22T05:42:37;2.63;;;2.10;;
9034;SDS011;4552;43.422;24.592;2023-12-22T05:45:06;3.17;;;2.10;;
9034;SDS011;4552;43.422;24.592;2023-12-22T05:47:36;2.33;;;2.13;;
9034;SDS011;4552;43.422;24.592;2023-12-22T05:50:03;2.73;;;2.20;;
9034;SDS011;4552;43.422;24.592;2023-12-22T05:52:30;3.37;;;2.57;;
9034;SDS011;4552;43.422;24.592;2023-12-22T05:54:57;4.60;;;2.87;;
9034;SDS011;4552;43.422;24.592;2023-12-22T05:57:25;3.57;;;2.80;;
9034;SDS011;4552;43.422;24.592;2023-12-22T06:06:07;4.10;;;3.08;;
9034;SDS011;4552;43.422;24.592;2023-12-22T06:08:34;3.07;;;2.60;;
9034;SDS011;4552;43.422;24.592;2023-12-22T06:11:00;6.90;;;4.33;;
9034;SDS011;4552;43.422;24.592;2023-12-22T06:13:27;9.27;;;6.13;;
9034;SDS011;4552;43.422;24.592;2023-12-22T06:15:54;3.43;;;3.13;;
9034;SDS011;4552;43.422;24.592;2023-12-22T06:18:22;3.27;;;2.43;;
9034;SDS011;4552;43.422;24.592;2023-12-22T06:20:50;2.47;;;2.10;;
9034;SDS011;4552;43.422;24.592;2023-12-22T06:23:18;1.83;;;1.73;;
9034;SDS011;4552;43.422;24.592;2023-12-22T06:25:45;2.07;;;1.87;;
9034;SDS011;4552;43.422;24.592;2023-12-22T06:28:13;4.07;;;1.87;;
9034;SDS011;4552;43.422;24.592;2023-12-22T08:35:27;2.20;;;2.00;;
9034;SDS011;4552;43.422;24.592;2023-12-22T08:37:54;2.07;;;1.97;;
9034;SDS011;4552;43.422;24.592;2023-12-22T08:40:21;2.30;;;2.10;;
9034;SDS011;4552;43.422;24.592;2023-12-22T08:42:51;1.80;;;1.70;;
9034;SDS011;4552;43.422;24.592;2023-12-22T08:45:24;2.20;;;2.00;;
9034;SDS011;4552;43.422;24.592;2023-12-22T08:47:53;2.23;;;2.00;;
9034;SDS011;4552;43.422;24.592;2023-12-22T08:50:21;1.97;;;1.87;;
9034;SDS011;4552;43.422;24.592;2023-12-22T08:52:49;2.10;;;1.90;;
9034;SDS011;4552;43.422;24.592;2023-12-22T08:55:16;2.47;;;2.00;;
9034;SDS011;4552;43.422;24.592;2023-12-22T08:57:43;3.03;;;2.20;;
9034;SDS011;4552;43.422;24.592;2023-12-22T09:20:23;2.03;;;1.80;;
9034;SDS011;4552;43.422;24.592;2023-12-22T09:22:50;2.70;;;2.50;;
9034;SDS011;4552;43.422;24.592;2023-12-22T09:25:17;4.60;;;2.20;;
9034;SDS011;4552;43.422;24.592;2023-12-22T09:27:44;3.00;;;2.10;;
9034;SDS011;4552;43.422;24.592;2023-12-22T10:11:04;1.50;;;1.40;;
9034;SDS011;4552;43.422;24.592;2023-12-22T10:13:33;1.80;;;1.70;;
9034;SDS011;4552;43.422;24.592;2023-12-22T10:36:15;1.37;;;1.20;;
9034;SDS011;4552;43.422;24.592;2023-12-22T10:38:43;1.10;;;1.10;;
9034;SDS011;4552;43.422;24.592;2023-12-22T10:41:11;1.10;;;1.10;;
9034;SDS011;4552;43.422;24.592;2023-12-22T10:43:38;1.00;;;1.00;;
9034;SDS011;4552;43.422;24.592;2023-12-22T11:53:24;2.00;;;1.33;;
9034;SDS011;4552;43.422;24.592;2023-12-22T11:55:59;1.00;;;1.00;;
9034;SDS011;4552;43.422;24.592;2023-12-22T11:58:34;1.57;;;1.30;;
9034;SDS011;4552;43.422;24.592;2023-12-22T12:01:05;1.10;;;1.10;;
9034;SDS011;4552;43.422;24.592;2023-12-22T12:03:35;1.37;;;1.27;;
9034;SDS011;4552;43.422;24.592;2023-12-22T12:06:11;1.33;;;1.20;;
9034;SDS011;4552;43.422;24.592;2023-12-22T12:08:43;2.73;;;2.00;;
9034;SDS011;4552;43.422;24.592;2023-12-22T12:11:10;3.77;;;1.80;;
9034;SDS011;4552;43.422;24.592;2023-12-22T12:13:42;1.27;;;1.20;;
9034;SDS011;4552;43.422;24.592;2023-12-22T12:16:11;1.50;;;1.40;;
9034;SDS011;4552;43.422;24.592;2023-12-22T12:18:39;1.40;;;1.30;;
9034;SDS011;4552;43.422;24.592;2023-12-22T12:21:08;1.20;;;1.20;;
9034;SDS011;4552;43.422;24.592;2023-12-22T12:23:37;1.40;;;1.30;;
9034;SDS011;4552;43.422;24.592;2023-12-22T12:26:07;1.97;;;1.60;;
9034;SDS011;4552;43.422;24.592;2023-12-22T12:28:37;1.10;;;1.10;;
9034;SDS011;4552;43.422;24.592;2023-12-22T12:34:38;2.73;;;1.20;;
9034;SDS011;4552;43.422;24.592;2023-12-22T12:37:06;1.20;;;1.20;;
9034;SDS011;4552;43.422;24.592;2023-12-22T12:39:34;3.83;;;1.60;;
9034;SDS011;4552;43.422;24.592;2023-12-22T12:42:03;1.57;;;1.40;;
9034;SDS011;4552;43.422;24.592;2023-12-22T12:44:35;1.33;;;1.23;;
9034;SDS011;4552;43.422;24.592;2023-12-22T12:47:10;1.30;;;1.20;;
9034;SDS011;4552;43.422;24.592;2023-12-22T12:49:38;1.20;;;1.20;;
9034;SDS011;4552;43.422;24.592;2023-12-22T12:52:05;1.23;;;1.20;;
9034;SDS011;4552;43.422;24.592;2023-12-22T12:54:32;1.33;;;1.23;;
9034;SDS011;4552;43.422;24.592;2023-12-22T12:56:59;1.30;;;1.20;;
9034;SDS011;4552;43.422;24.592;2023-12-22T12:59:28;1.40;;;1.30;;
9034;SDS011;4552;43.422;24.592;2023-12-22T13:01:54;1.50;;;1.40;;
9034;SDS011;4552;43.422;24.592;2023-12-22T13:04:23;1.33;;;1.23;;
9034;SDS011;4552;43.422;24.592;2023-12-22T13:07:02;1.73;;;1.63;;
9034;SDS011;4552;43.422;24.592;2023-12-22T13:09:31;1.37;;;1.27;;
9034;SDS011;4552;43.422;24.592;2023-12-22T13:11:58;2.73;;;1.60;;
9034;SDS011;4552;43.422;24.592;2023-12-22T13:21:27;1.53;;;1.40;;
9034;SDS011;4552;43.422;24.592;2023-12-22T13:26:38;1.43;;;1.33;;
9034;SDS011;4552;43.422;24.592;2023-12-22T13:29:07;2.60;;;1.70;;
9034;SDS011;4552;43.422;24.592;2023-12-22T13:31:36;1.40;;;1.30;;
9034;SDS011;4552;43.422;24.592;2023-12-22T13:34:08;1.60;;;1.50;;
9034;SDS011;4552;43.422;24.592;2023-12-22T13:36:36;1.33;;;1.20;;
9034;SDS011;4552;43.422;24.592;2023-12-22T13:39:04;1.53;;;1.43;;
9034;SDS011;4552;43.422;24.592;2023-12-22T13:41:32;2.37;;;1.50;;
9034;SDS011;4552;43.422;24.592;2023-12-22T13:44:02;2.27;;;1.50;;
9034;SDS011;4552;43.422;24.592;2023-12-22T13:46:31;1.60;;;1.50;;
9034;SDS011;4552;43.422;24.592;2023-12-22T13:48:58;2.47;;;1.60;;
9034;SDS011;4552;43.422;24.592;2023-12-22T13:51:25;2.63;;;1.70;;
9034;SDS011;4552;43.422;24.592;2023-12-22T13:53:54;1.83;;;1.70;;
9034;SDS011;4552;43.422;24.592;2023-12-22T13:56:24;1.57;;;1.47;;
9034;SDS011;4552;43.422;24.592;2023-12-22T13:58:50;1.87;;;1.60;;
9034;SDS011;4552;43.422;24.592;2023-12-22T14:01:17;2.07;;;1.70;;
9034;SDS011;4552;43.422;24.592;2023-12-22T14:03:44;1.40;;;1.30;;
9034;SDS011;4552;43.422;24.592;2023-12-22T14:06:11;2.30;;;1.60;;
9034;SDS011;4552;43.422;24.592;2023-12-22T14:08:39;1.60;;;1.40;;
9034;SDS011;4552;43.422;24.592;2023-12-22T14:11:08;1.53;;;1.43;;
9034;SDS011;4552;43.422;24.592;2023-12-22T14:13:35;1.40;;;1.30;;
9034;SDS011;4552;43.422;24.592;2023-12-22T14:19:27;1.63;;;1.40;;
9034;SDS011;4552;43.422;24.592;2023-12-22T14:21:54;1.60;;;1.50;;
9034;SDS011;4552;43.422;24.592;2023-12-22T14:24:21;1.60;;;1.50;;
9034;SDS011;4552;43.422;24.592;2023-12-22T14:26:55;1.70;;;1.60;;
9034;SDS011;4552;43.422;24.592;2023-12-22T14:36:06;2.20;;;1.40;;
9034;SDS011;4552;43.422;24.592;2023-12-22T14:38:33;1.57;;;1.47;;
9034;SDS011;4552;43.422;24.592;2023-12-22T14:41:00;1.80;;;1.60;;
9034;SDS011;4552;43.422;24.592;2023-12-22T14:43:31;1.57;;;1.47;;
9034;SDS011;4552;43.422;24.592;2023-12-22T14:45:58;1.63;;;1.53;;
9034;SDS011;4552;43.422;24.592;2023-12-22T14:48:26;1.87;;;1.50;;
9034;SDS011;4552;43.422;24.592;2023-12-22T14:50:54;2.93;;;1.60;;
9034;SDS011;4552;43.422;24.592;2023-12-22T14:53:24;1.77;;;1.40;;
9034;SDS011;4552;43.422;24.592;2023-12-22T14:55:57;2.50;;;1.70;;
9034;SDS011;4552;43.422;24.592;2023-12-22T14:58:24;1.60;;;1.50;;
9034;SDS011;4552;43.422;24.592;2023-12-22T15:00:53;3.23;;;1.70;;
9034;SDS011;4552;43.422;24.592;2023-12-22T15:03:19;2.53;;;2.00;;
9034;SDS011;4552;43.422;24.592;2023-12-22T15:05:46;2.97;;;1.50;;
9034;SDS011;4552;43.422;24.592;2023-12-22T15:08:13;2.27;;;1.70;;
9034;SDS011;4552;43.422;24.592;2023-12-22T15:10:41;1.83;;;1.43;;
9034;SDS011;4552;43.422;24.592;2023-12-22T15:13:08;4.13;;;1.90;;
9034;SDS011;4552;43.422;24.592;2023-12-22T15:15:35;3.03;;;2.00;;
9034;SDS011;4552;43.422;24.592;2023-12-22T15:18:04;2.77;;;2.00;;
9034;SDS011;4552;43.422;24.592;2023-12-22T15:20:34;3.33;;;2.13;;
9034;SDS011;4552;43.422;24.592;2023-12-22T15:23:02;2.37;;;1.80;;
9034;SDS011;4552;43.422;24.592;2023-12-22T15:25:29;4.23;;;2.00;;
9034;SDS011;4552;43.422;24.592;2023-12-22T15:27:56;5.57;;;1.80;;
9034;SDS011;4552;43.422;24.592;2023-12-22T15:30:23;2.23;;;1.63;;
9034;SDS011;4552;43.422;24.592;2023-12-22T15:32:53;1.87;;;1.73;;
9034;SDS011;4552;43.422;24.592;2023-12-22T15:35:21;3.33;;;1.83;;
9034;SDS011;4552;43.422;24.592;2023-12-22T15:37:48;4.73;;;1.60;;
9034;SDS011;4552;43.422;24.592;2023-12-22T15:40:16;1.83;;;1.60;;
9034;SDS011;4552;43.422;24.592;2023-12-22T15:42:44;2.50;;;1.83;;
9034;SDS011;4552;43.422;24.592;2023-12-22T15:55:17;2.13;;;1.70;;
9034;SDS011;4552;43.422;24.592;2023-12-22T15:57:44;1.98;;;1.70;;
9034;SDS011;4552;43.422;24.592;2023-12-22T16:09:46;1.60;;;1.50;;
9034;SDS011;4552;43.422;24.592;2023-12-22T16:12:14;1.50;;;1.40;;
9034;SDS011;4552;43.422;24.592;2023-12-22T16:14:41;1.90;;;1.60;;
9034;SDS011;4552;43.422;24.592;2023-12-22T16:17:09;2.43;;;1.50;;
9034;SDS011;4552;43.422;24.592;2023-12-22T16:19:37;1.90;;;1.70;;
9034;SDS011;4552;43.422;24.592;2023-12-22T16:22:06;4.83;;;1.50;;
9034;SDS011;4552;43.422;24.592;2023-12-22T16:24:33;3.07;;;2.10;;
9034;SDS011;4552;43.422;24.592;2023-12-22T16:27:03;3.00;;;1.47;;
9034;SDS011;4552;43.422;24.592;2023-12-22T16:29:32;1.63;;;1.52;;
9034;SDS011;4552;43.422;24.592;2023-12-22T16:31:59;1.70;;;1.60;;
9034;SDS011;4552;43.422;24.592;2023-12-22T16:34:26;1.63;;;1.50;;
9034;SDS011;4552;43.422;24.592;2023-12-22T16:36:53;1.60;;;1.50;;
9034;SDS011;4552;43.422;24.592;2023-12-22T16:39:20;1.50;;;1.40;;
9034;SDS011;4552;43.422;24.592;2023-12-22T16:41:47;1.50;;;1.40;;
9034;SDS011;4552;43.422;24.592;2023-12-22T16:44:15;4.60;;;1.50;;
9034;SDS011;4552;43.422;24.592;2023-12-22T16:50:13;1.97;;;1.63;;
9034;SDS011;4552;43.422;24.592;2023-12-22T16:52:40;1.57;;;1.47;;
9034;SDS011;4552;43.422;24.592;2023-12-22T16:55:07;1.57;;;1.37;;
9034;SDS011;4552;43.422;24.592;2023-12-22T16:57:34;1.77;;;1.50;;
9034;SDS011;4552;43.422;24.592;2023-12-22T17:03:31;1.50;;;1.40;;
9034;SDS011;4552;43.422;24.592;2023-12-22T17:06:01;1.30;;;1.20;;
9034;SDS011;4552;43.422;24.592;2023-12-22T17:08:31;1.50;;;1.40;;
9034;SDS011;4552;43.422;24.592;2023-12-22T17:11:00;1.43;;;1.30;;
9034;SDS011;4552;43.422;24.592;2023-12-22T17:13:27;2.25;;;1.45;;
9034;SDS011;4552;43.422;24.592;2023-12-22T18:26:00;1.80;;;1.50;;
9034;SDS011;4552;43.422;24.592;2023-12-22T18:28:27;2.47;;;1.50;;
9034;SDS011;4552;43.422;24.592;2023-12-22T18:30:54;1.60;;;1.50;;
9034;SDS011;4552;43.422;24.592;2023-12-22T18:33:21;4.00;;;1.73;;
9034;SDS011;4552;43.422;24.592;2023-12-22T18:35:49;1.67;;;1.57;;
9034;SDS011;4552;43.422;24.592;2023-12-22T18:38:22;2.33;;;1.60;;
9034;SDS011;4552;43.422;24.592;2023-12-22T18:40:52;1.97;;;1.87;;
9034;SDS011;4552;43.422;24.592;2023-12-22T18:43:22;1.87;;;1.77;;
9034;SDS011;4552;43.422;24.592;2023-12-22T18:45:49;2.03;;;1.83;;
9034;SDS011;4552;43.422;24.592;2023-12-22T18:48:17;1.70;;;1.60;;
9034;SDS011;4552;43.422;24.592;2023-12-22T18:50:44;1.83;;;1.67;;
9034;SDS011;4552;43.422;24.592;2023-12-22T18:53:11;1.83;;;1.50;;
9034;SDS011;4552;43.422;24.592;2023-12-22T18:55:52;1.60;;;1.50;;
9034;SDS011;4552;43.422;24.592;2023-12-22T18:58:19;3.33;;;1.43;;
9034;SDS011;4552;43.422;24.592;2023-12-22T19:34:26;3.93;;;1.80;;
9034;SDS011;4552;43.422;24.592;2023-12-22T19:36:55;2.33;;;1.40;;
9034;SDS011;4552;43.422;24.592;2023-12-22T19:39:23;1.70;;;1.60;;
9034;SDS011;4552;43.422;24.592;2023-12-22T19:41:50;2.93;;;1.80;;
9034;SDS011;4552;43.422;24.592;2023-12-22T19:44:17;2.73;;;1.90;;
9034;SDS011;4552;43.422;24.592;2023-12-22T20:57:26;1.50;;;1.40;;
9034;SDS011;4552;43.422;24.592;2023-12-22T20:59:53;1.93;;;1.70;;
9034;SDS011;4552;43.422;24.592;2023-12-22T21:02:20;1.20;;;1.20;;
9034;SDS011;4552;43.422;24.592;2023-12-22T21:04:48;2.90;;;2.13;;
9034;SDS011;4552;43.422;24.592;2023-12-22T21:07:15;3.97;;;1.70;;
9034;SDS011;4552;43.422;24.592;2023-12-22T21:09:48;2.42;;;1.90;;
9034;SDS011;4552;43.422;24.592;2023-12-22T21:12:20;2.57;;;1.70;;
9034;SDS011;4552;43.422;24.592;2023-12-22T21:14:49;1.63;;;1.53;;
9034;SDS011;4552;43.422;24.592;2023-12-22T21:17:17;3.80;;;1.53;;
9034;SDS011;4552;43.422;24.592;2023-12-22T21:19:50;2.13;;;1.83;;
9034;SDS011;4552;43.422;24.592;2023-12-22T21:22:18;2.93;;;1.80;;
9034;SDS011;4552;43.422;24.592;2023-12-22T21:24:45;3.30;;;1.40;;
9034;SDS011;4552;43.422;24.592;2023-12-22T21:27:12;4.60;;;1.63;;
9034;SDS011;4552;43.422;24.592;2023-12-22T21:29:39;1.50;;;1.40;;
9034;SDS011;4552;43.422;24.592;2023-12-22T21:32:09;1.57;;;1.47;;
9034;SDS011;4552;43.422;24.592;2023-12-22T21:34:36;1.50;;;1.40;;
9034;SDS011;4552;43.422;24.592;2023-12-22T21:37:04;2.23;;;1.53;;
9034;SDS011;4552;43.422;24.592;2023-12-22T21:39:31;1.60;;;1.50;;
9034;SDS011;4552;43.422;24.592;2023-12-22T21:41:58;1.60;;;1.50;;
9034;SDS011;4552;43.422;24.592;2023-12-22T21:44:27;2.13;;;1.90;;
9034;SDS011;4552;43.422;24.592;2023-12-22T21:53:39;1.80;;;1.70;;
9034;SDS011;4552;43.422;24.592;2023-12-22T21:56:06;2.60;;;1.70;;
9034;SDS011;4552;43.422;24.592;2023-12-22T21:58:33;2.53;;;1.97;;
9034;SDS011;4552;43.422;24.592;2023-12-22T22:14:29;3.27;;;1.90;;
9034;SDS011;4552;43.422;24.592;2023-12-22T22:16:56;2.87;;;2.00;;
9034;SDS011;4552;43.422;24.592;2023-12-22T22:19:23;2.63;;;1.63;;
9034;SDS011;4552;43.422;24.592;2023-12-22T22:21:50;2.87;;;1.80;;
9034;SDS011;4552;43.422;24.592;2023-12-22T22:24:17;2.20;;;1.90;;
9034;SDS011;4552;43.422;24.592;2023-12-22T22:26:44;1.50;;;1.40;;
9034;SDS011;4552;43.422;24.592;2023-12-22T22:29:10;2.90;;;1.70;;
9034;SDS011;4552;43.422;24.592;2023-12-22T22:55:14;1.70;;;1.60;;
9034;SDS011;4552;43.422;24.592;2023-12-22T22:57:41;1.30;;;1.30;;
9034;SDS011;4552;43.422;24.592;2023-12-22T23:00:08;1.40;;;1.30;;
9034;SDS011;4552;43.422;24.592;2023-12-22T23:02:37;1.57;;;1.47;;
9034;SDS011;4552;43.422;24.592;2023-12-22T23:05:05;1.83;;;1.40;;
9034;SDS011;4552;43.422;24.592;2023-12-22T23:07:32;1.40;;;1.30;;
9034;SDS011;4552;43.422;24.592;2023-12-22T23:10:00;3.13;;;2.00;;
9034;SDS011;4552;43.422;24.592;2023-12-22T23:12:31;1.97;;;1.50;;
9034;SDS011;4552;43.422;24.592;2023-12-22T23:14:58;1.60;;;1.50;;
9034;SDS011;4552;43.422;24.592;2023-12-22T23:52:35;1.17;;;1.17;;
9034;SDS011;4552;43.422;24.592;2023-12-22T23:55:02;1.20;;;1.20;;
9034;SDS011;4552;43.422;24.592;2023-12-22T23:57:29;1.67;;;1.30;;
9034;SDS011;4552;43.422;24.592;2023-12-22T23:59:56;1.33;;;1.23;;
